Time;durP1;ratioP1;P1;durP2;ratioP2;P2;SDS_P1;SDS_P2;PMS_P1;PMS_P2;Temp;Humidity;BMP_temperature;BMP_pressure;BME280_temperature;BME280_humidity;BME280_pressure;Samples;Min_cycle;Max_cycle;Signal;HPM_P1;HPM_P2
2021/11/07 00:00:22;;;;;;;9.27;3.75;;;;;;;5.05;79.09;99317.78;5061567;28;20036;-55
2021/11/07 00:05:29;;;;;;;7.38;3.60;;;;;;;5.33;79.37;99352.19;5072008;28;20032;-58
2021/11/07 00:10:43;;;;;;;7.07;3.60;;;;;;;5.39;80.00;99349.25;5099832;27;20493;-58
2021/11/07 00:13:42;;;;;;;7.55;3.60;;;;;;;5.47;80.08;99353.94;5072922;28;20028;-57
2021/11/07 00:16:08;;;;;;;6.80;3.67;;;;;;;5.50;78.38;99354.59;5074844;28;20039;-57
2021/11/07 00:18:48;;;;;;;6.85;3.50;;;;;;;5.47;76.54;99336.72;5074678;28;20032;-58
2021/11/07 00:21:18;;;;;;;6.43;3.65;;;;;;;5.48;76.34;99335.81;5071215;28;20027;-58
2021/11/07 00:28:53;;;;;;;7.28;3.70;;;;;;;5.59;74.66;99325.63;5103368;27;20107;-60
2021/11/07 00:39:12;;;;;;;8.10;3.50;;;;;;;5.66;75.23;99325.25;5061007;28;20021;-58
2021/11/07 00:44:30;;;;;;;7.68;3.45;;;;;;;5.51;76.55;99309.81;5069386;28;20031;-58
2021/11/07 00:47:00;;;;;;;7.63;4.00;;;;;;;5.55;76.41;99313.03;5069982;28;20591;-57
2021/11/07 00:49:36;;;;;;;6.40;3.50;;;;;;;5.39;76.81;99300.25;5068688;28;20044;-57
2021/11/07 00:57:59;;;;;;;6.90;3.67;;;;;;;5.43;76.38;99313.78;5065922;28;20535;-58
2021/11/07 01:00:06;;;;;;;7.70;3.47;;;;;;;5.41;76.52;99310.47;5070299;28;20036;-58
2021/11/07 01:02:37;;;;;;;5.78;3.00;;;;;;;5.37;76.19;99304.69;5066698;28;20050;-59
2021/11/07 01:05:19;;;;;;;7.07;3.35;;;;;;;5.42;76.23;99304.38;5055976;28;20443;-58
2021/11/07 01:07:45;;;;;;;6.20;3.40;;;;;;;5.34;75.58;99289.41;5067844;28;20380;-58
2021/11/07 01:10:10;;;;;;;6.35;3.40;;;;;;;5.40;75.42;99307.06;5060763;28;20499;-58
2021/11/07 01:12:36;;;;;;;6.47;3.40;;;;;;;5.43;74.96;99300.91;5071882;28;20154;-58
2021/11/07 01:15:02;;;;;;;6.25;3.15;;;;;;;5.48;74.83;99310.00;5073389;28;20090;-58
2021/11/07 01:17:27;;;;;;;7.68;3.30;;;;;;;5.41;74.75;99295.84;5071411;28;20033;-58
2021/11/07 01:19:55;;;;;;;6.22;3.10;;;;;;;5.52;74.13;99295.16;5063206;28;20037;-58
2021/11/07 01:22:36;;;;;;;5.63;2.88;;;;;;;5.52;72.99;99297.75;5066771;28;20123;-58
2021/11/07 01:25:02;;;;;;;6.22;3.13;;;;;;;5.48;73.20;99307.44;5097310;27;20572;-57
2021/11/07 01:27:33;;;;;;;5.85;2.75;;;;;;;5.37;72.90;99276.31;5069549;28;20107;-57
2021/11/07 01:30:02;;;;;;;5.53;2.63;;;;;;;5.54;72.82;99291.56;5066041;28;20076;-58
2021/11/07 01:32:27;;;;;;;6.32;2.80;;;;;;;5.18;72.71;99225.91;5069678;28;20035;-57
2021/11/07 01:37:21;;;;;;;5.85;3.00;;;;;;;5.49;72.10;99275.53;5069411;28;20123;-58
2021/11/07 01:42:31;;;;;;;5.53;2.78;;;;;;;5.43;71.94;99277.69;5068427;28;20035;-56
2021/11/07 01:45:04;;;;;;;6.47;2.38;;;;;;;5.42;71.45;99292.34;5072204;28;20552;-58
2021/11/07 01:47:31;;;;;;;6.57;2.50;;;;;;;5.45;70.41;99279.22;5071918;28;20016;-58
2021/11/07 01:49:57;;;;;;;4.65;2.08;;;;;;;5.48;69.38;99280.81;5053224;28;20031;-58
2021/11/07 01:52:25;;;;;;;5.25;2.10;;;;;;;5.42;70.13;99260.53;5067918;28;20028;-57
2021/11/07 01:54:54;;;;;;;5.75;2.33;;;;;;;5.52;69.58;99267.59;5069797;28;20020;-58
2021/11/07 01:57:25;;;;;;;5.65;2.47;;;;;;;5.48;69.16;99268.72;5050013;28;20450;-58
2021/11/07 01:59:54;;;;;;;5.50;2.15;;;;;;;5.09;69.90;99208.41;5072497;28;20515;-57
2021/11/07 02:02:20;;;;;;;5.60;2.22;;;;;;;5.37;69.55;99250.53;5062470;28;20557;-58
2021/11/07 02:04:46;;;;;;;5.22;2.42;;;;;;;5.40;69.57;99247.75;5065234;28;20021;-58
2021/11/07 02:07:12;;;;;;;5.53;2.33;;;;;;;5.50;68.87;99253.16;5070638;28;20357;-58
2021/11/07 02:09:38;;;;;;;5.00;2.15;;;;;;;5.41;68.90;99241.66;5059715;28;20086;-58
2021/11/07 02:12:06;;;;;;;5.40;2.28;;;;;;;5.46;70.37;99243.94;5058816;28;20144;-57
2021/11/07 02:14:32;;;;;;;5.07;1.92;;;;;;;5.34;70.18;99219.75;5069727;28;20028;-58
2021/11/07 02:16:57;;;;;;;5.15;2.22;;;;;;;5.31;71.00;99235.41;5064577;28;20463;-57
2021/11/07 02:19:23;;;;;;;6.03;2.33;;;;;;;5.34;71.39;99248.13;5071516;28;20056;-58
2021/11/07 02:21:49;;;;;;;5.80;2.75;;;;;;;5.01;71.56;99201.13;5071361;28;20028;-57
2021/11/07 02:24:17;;;;;;;6.75;2.65;;;;;;;5.25;72.68;99243.56;5067098;28;20028;-57
2021/11/07 02:26:48;;;;;;;5.35;2.50;;;;;;;5.08;73.70;99216.25;5073268;28;20051;-58
2021/11/07 02:29:14;;;;;;;5.65;2.00;;;;;;;5.26;72.99;99229.75;5065606;28;20020;-58
2021/11/07 02:31:40;;;;;;;5.47;2.40;;;;;;;5.22;73.11;99228.25;5065928;28;20032;-58
2021/11/07 02:34:05;;;;;;;5.05;2.03;;;;;;;5.21;72.68;99227.44;5075109;28;20039;-58
2021/11/07 02:36:31;;;;;;;5.40;2.28;;;;;;;5.23;72.20;99214.47;5063471;28;20036;-58
2021/11/07 02:38:57;;;;;;;6.45;2.08;;;;;;;5.13;72.30;99203.88;5070144;28;20056;-58
2021/11/07 02:41:22;;;;;;;5.13;2.20;;;;;;;5.09;73.16;99192.09;5064162;28;20134;-59
2021/11/07 02:43:50;;;;;;;4.53;2.05;;;;;;;5.08;71.68;99203.34;5069526;28;20094;-59
2021/11/07 02:46:17;;;;;;;4.18;1.70;;;;;;;5.10;71.55;99207.47;5071703;28;20029;-60
2021/11/07 02:49:03;;;;;;;4.80;1.85;;;;;;;4.82;71.32;99154.25;5070162;28;20542;-59
2021/11/07 02:51:32;;;;;;;4.80;1.95;;;;;;;5.15;71.38;99196.91;5069199;28;20081;-58
2021/11/07 02:53:59;;;;;;;4.80;2.00;;;;;;;5.23;69.77;99199.00;5052133;28;20485;-59
2021/11/07 02:56:25;;;;;;;4.82;2.13;;;;;;;5.25;69.88;99200.53;5059068;28;20314;-58
2021/11/07 02:58:50;;;;;;;6.10;1.98;;;;;;;5.08;70.12;99175.81;5074381;28;20161;-58
2021/11/07 03:01:21;;;;;;;5.50;1.80;;;;;;;5.29;69.65;99206.31;5067174;28;20024;-59
2021/11/07 03:03:48;;;;;;;5.53;1.95;;;;;;;5.26;70.26;99203.97;5071277;28;20020;-58
2021/11/07 03:06:14;;;;;;;4.95;1.80;;;;;;;4.96;71.17;99159.34;5075418;28;20078;-58
2021/11/07 03:08:42;;;;;;;5.07;1.90;;;;;;;5.22;71.48;99207.63;5080268;28;20544;-58
2021/11/07 03:11:09;;;;;;;3.88;1.60;;;;;;;5.27;71.82;99190.13;5067749;28;20082;-58
2021/11/07 03:13:34;;;;;;;4.18;1.65;;;;;;;5.01;70.58;99143.63;5069954;28;20059;-59
2021/11/07 03:16:05;;;;;;;5.72;1.85;;;;;;;5.20;71.29;99187.94;5069284;28;20495;-59
2021/11/07 03:18:34;;;;;;;5.13;1.80;;;;;;;4.96;70.23;99149.03;5058708;28;20016;-58
2021/11/07 03:21:00;;;;;;;4.27;1.63;;;;;;;5.00;70.51;99155.69;5038980;28;20497;-58
2021/11/07 03:23:25;;;;;;;4.88;1.95;;;;;;;5.11;70.05;99174.78;5068371;28;20028;-58
2021/11/07 03:26:00;;;;;;;4.45;1.88;;;;;;;5.08;69.41;99178.41;5069572;28;20106;-58
2021/11/07 03:28:27;;;;;;;4.30;1.77;;;;;;;5.22;69.13;99199.91;5073123;28;20279;-59
2021/11/07 03:31:01;;;;;;;4.80;1.80;;;;;;;5.27;69.96;99209.00;5075098;28;20042;-58
2021/11/07 03:33:32;;;;;;;4.57;1.77;;;;;;;5.19;70.61;99206.91;5068176;28;20453;-57
2021/11/07 03:36:00;;;;;;;5.00;1.85;;;;;;;5.20;71.31;99206.00;5069417;28;20307;-59
2021/11/07 03:38:26;;;;;;;4.28;1.60;;;;;;;5.33;72.25;99205.19;5107091;27;20514;-59
2021/11/07 03:40:51;;;;;;;4.40;1.75;;;;;;;5.36;71.93;99212.75;5076330;28;20024;-58
2021/11/07 03:43:17;;;;;;;4.57;1.50;;;;;;;5.24;72.17;99206.63;5075501;28;20028;-58
2021/11/07 03:45:43;;;;;;;4.63;1.85;;;;;;;5.24;72.93;99216.09;5071266;28;20031;-59
2021/11/07 03:48:08;;;;;;;5.18;1.88;;;;;;;5.15;73.93;99215.75;5071379;28;20024;-59
2021/11/07 03:50:34;;;;;;;4.80;1.90;;;;;;;5.06;73.57;99200.06;5071028;28;20030;-58
2021/11/07 03:52:59;;;;;;;4.70;1.77;;;;;;;4.86;74.53;99209.00;5072923;28;20024;-58
2021/11/07 03:55:25;;;;;;;4.60;1.80;;;;;;;4.57;76.07;99168.63;5066396;28;20112;-58
2021/11/07 03:57:51;;;;;;;4.35;1.65;;;;;;;4.80;75.21;99221.34;5061891;28;20030;-58
2021/11/07 04:00:18;;;;;;;4.60;1.65;;;;;;;4.76;74.10;99212.16;5069079;28;20386;-59
2021/11/07 04:02:43;;;;;;;5.43;1.90;;;;;;;4.55;74.08;99172.22;5068240;28;20447;-59
2021/11/07 04:05:09;;;;;;;5.20;1.95;;;;;;;4.95;72.20;99222.16;5049745;28;23527;-59
2021/11/07 04:07:36;;;;;;;4.47;1.60;;;;;;;4.92;72.82;99221.50;5064840;28;20028;-60
2021/11/07 04:10:04;;;;;;;5.57;1.80;;;;;;;4.76;74.24;99193.25;5066340;28;20044;-59
2021/11/07 04:12:30;;;;;;;4.22;1.83;;;;;;;4.91;72.10;99219.84;5054632;28;20032;-58
2021/11/07 04:14:56;;;;;;;4.68;1.90;;;;;;;5.05;71.67;99235.28;5063843;28;20624;-59
2021/11/07 04:17:21;;;;;;;4.32;1.85;;;;;;;5.17;71.30;99241.44;5068156;28;20029;-58
2021/11/07 04:19:47;;;;;;;4.65;1.70;;;;;;;5.14;71.57;99241.63;5068529;28;20024;-58
2021/11/07 04:22:13;;;;;;;5.22;1.70;;;;;;;5.16;72.21;99237.22;5075383;28;20387;-59
2021/11/07 04:24:39;;;;;;;5.82;2.10;;;;;;;5.20;72.98;99231.78;5073672;28;20113;-59
2021/11/07 04:27:05;;;;;;;4.32;1.70;;;;;;;5.17;73.61;99238.88;5070371;28;20035;-57
2021/11/07 04:29:30;;;;;;;5.70;1.75;;;;;;;5.10;73.35;99230.69;5102360;27;20304;-58
2021/11/07 04:31:56;;;;;;;5.82;1.67;;;;;;;5.09;72.72;99231.63;5067478;28;20024;-59
2021/11/07 04:34:22;;;;;;;4.68;1.77;;;;;;;5.04;73.03;99225.06;5076212;28;20029;-59
2021/11/07 04:36:48;;;;;;;4.25;1.63;;;;;;;4.98;73.63;99218.53;5063209;28;20028;-58
2021/11/07 04:39:13;;;;;;;4.32;1.60;;;;;;;4.90;74.36;99225.94;5076167;28;20031;-58
2021/11/07 04:41:38;;;;;;;5.80;1.95;;;;;;;4.89;72.89;99225.13;5065126;28;20668;-58
2021/11/07 04:44:04;;;;;;;4.80;1.90;;;;;;;4.85;73.11;99218.47;5077130;28;20089;-58
2021/11/07 04:46:29;;;;;;;7.18;1.75;;;;;;;4.95;72.52;99231.63;5066225;28;20028;-58
2021/11/07 04:48:55;;;;;;;4.10;1.58;;;;;;;4.93;71.54;99243.78;5070865;28;20043;-59
2021/11/07 04:51:20;;;;;;;4.20;1.70;;;;;;;4.92;71.06;99239.53;5073092;28;20028;-58
2021/11/07 04:53:46;;;;;;;6.40;1.58;;;;;;;4.89;70.55;99232.00;5071511;28;20028;-59
2021/11/07 04:56:12;;;;;;;4.05;1.38;;;;;;;4.55;70.21;99180.78;5075602;28;20024;-58
2021/11/07 04:58:38;;;;;;;4.20;1.60;;;;;;;4.89;70.18;99219.09;5065622;28;20031;-58
2021/11/07 05:01:05;;;;;;;4.30;1.52;;;;;;;4.55;70.80;99167.06;5076115;28;20016;-58
2021/11/07 05:03:31;;;;;;;4.35;1.55;;;;;;;4.81;69.82;99204.94;5065254;28;20559;-58
2021/11/07 05:05:57;;;;;;;3.88;1.48;;;;;;;4.84;69.21;99203.94;5068064;28;20095;-58
2021/11/07 05:08:22;;;;;;;4.00;1.50;;;;;;;4.65;69.92;99170.72;5052688;28;20034;-59
2021/11/07 05:10:48;;;;;;;4.30;1.50;;;;;;;4.87;69.26;99200.34;5062541;28;20103;-59
2021/11/07 05:13:13;;;;;;;4.70;1.60;;;;;;;4.81;70.09;99202.38;5075541;28;20058;-58
2021/11/07 05:15:39;;;;;;;6.90;1.92;;;;;;;4.78;69.85;99212.88;5072755;28;20386;-58
2021/11/07 05:18:04;;;;;;;4.22;1.70;;;;;;;4.56;69.17;99168.72;5080186;28;20028;-58
2021/11/07 05:20:30;;;;;;;5.22;1.33;;;;;;;4.88;69.30;99223.44;5066172;28;20035;-58
2021/11/07 05:22:56;;;;;;;4.22;1.40;;;;;;;4.57;70.34;99172.97;5063768;28;20032;-58
2021/11/07 05:25:22;;;;;;;3.60;1.38;;;;;;;4.73;70.48;99212.31;5070711;28;20027;-58
2021/11/07 05:27:48;;;;;;;3.78;1.20;;;;;;;4.56;70.67;99179.88;5069950;28;20024;-58
2021/11/07 05:30:15;;;;;;;5.82;1.52;;;;;;;4.85;70.82;99226.19;5069751;28;20026;-58
2021/11/07 05:32:41;;;;;;;3.80;1.33;;;;;;;4.87;70.66;99224.34;5066825;28;20518;-58
2021/11/07 05:35:08;;;;;;;5.22;1.45;;;;;;;4.82;71.89;99224.66;5058016;28;20020;-58
2021/11/07 05:37:33;;;;;;;3.85;1.33;;;;;;;4.92;71.05;99227.47;5071559;28;20028;-55
2021/11/07 05:39:59;;;;;;;3.90;1.33;;;;;;;4.61;72.56;99177.81;5050175;28;20029;-59
2021/11/07 05:42:24;;;;;;;3.78;1.48;;;;;;;4.76;71.69;99196.69;5071853;28;20036;-59
2021/11/07 05:44:52;;;;;;;3.95;1.30;;;;;;;5.03;70.90;99218.28;5070167;28;20040;-58
2021/11/07 05:47:17;;;;;;;3.92;1.50;;;;;;;4.69;71.51;99174.78;5066222;28;20085;-58
2021/11/07 05:49:42;;;;;;;5.18;1.73;;;;;;;4.81;71.91;99230.72;5070493;28;20127;-58
2021/11/07 05:52:08;;;;;;;3.83;1.30;;;;;;;4.49;71.36;99162.28;5061102;28;20113;-59
2021/11/07 05:54:33;;;;;;;4.80;1.80;;;;;;;4.90;70.98;99213.03;5070681;28;20376;-59
2021/11/07 05:57:01;;;;;;;4.10;1.40;;;;;;;4.86;70.83;99219.31;5062692;28;20035;-58
2021/11/07 05:59:28;;;;;;;3.72;1.50;;;;;;;4.81;71.40;99228.13;5063702;28;20513;-58
2021/11/07 06:01:54;;;;;;;3.65;1.30;;;;;;;4.45;72.31;99171.94;5070044;28;20023;-58
2021/11/07 06:04:19;;;;;;;3.83;1.40;;;;;;;4.61;71.22;99198.41;5071067;28;20036;-58
2021/11/07 06:06:45;;;;;;;4.03;1.40;;;;;;;4.66;71.63;99212.78;5071819;28;20024;-58
2021/11/07 06:09:10;;;;;;;4.28;1.50;;;;;;;4.41;71.17;99160.97;5052014;28;20263;-59
2021/11/07 06:11:36;;;;;;;5.07;1.70;;;;;;;4.75;72.48;99210.47;5063281;28;20104;-58
2021/11/07 06:14:01;;;;;;;4.35;1.52;;;;;;;4.79;73.04;99205.97;5066617;28;20062;-59
2021/11/07 06:16:27;;;;;;;3.65;1.23;;;;;;;4.61;73.79;99171.84;5070346;28;20604;-59
2021/11/07 06:18:52;;;;;;;4.00;1.30;;;;;;;4.74;73.79;99193.34;5066005;28;20036;-58
2021/11/07 06:21:18;;;;;;;3.63;1.38;;;;;;;4.76;73.18;99182.97;5071953;28;20017;-58
2021/11/07 06:23:46;;;;;;;3.95;1.40;;;;;;;4.50;72.42;99140.75;5071593;28;20020;-58
2021/11/07 06:26:11;;;;;;;4.65;1.35;;;;;;;4.84;71.82;99178.19;5065427;28;20020;-59
2021/11/07 06:28:36;;;;;;;4.22;1.60;;;;;;;4.77;73.21;99176.91;5074419;28;20016;-59
2021/11/07 06:31:05;;;;;;;3.88;1.40;;;;;;;4.73;73.51;99188.31;5067310;28;20510;-58
2021/11/07 06:33:31;;;;;;;3.70;1.40;;;;;;;4.69;73.89;99181.66;5066370;28;20063;-59
2021/11/07 06:35:56;;;;;;;3.70;1.40;;;;;;;4.24;74.08;99133.69;5108443;27;20395;-58
2021/11/07 06:38:22;;;;;;;3.50;1.35;;;;;;;4.65;74.13;99188.75;5079244;28;20736;-58
2021/11/07 06:40:47;;;;;;;4.32;1.33;;;;;;;4.59;74.74;99184.00;5079737;28;20024;-57
2021/11/07 06:43:13;;;;;;;4.03;1.60;;;;;;;4.56;74.46;99179.88;5077970;28;20036;-58
2021/11/07 06:45:38;;;;;;;3.85;1.50;;;;;;;4.56;75.32;99191.88;5056112;28;20064;-57
2021/11/07 06:48:04;;;;;;;4.10;1.50;;;;;;;4.57;74.63;99175.53;5070115;28;20099;-58
2021/11/07 06:50:30;;;;;;;4.32;1.65;;;;;;;4.24;75.41;99112.28;5074910;28;20167;-58
2021/11/07 06:52:56;;;;;;;4.40;1.70;;;;;;;4.57;74.92;99160.91;5107866;27;20465;-58
2021/11/07 06:55:22;;;;;;;3.85;1.30;;;;;;;4.56;75.30;99161.84;5057101;28;20387;-58
2021/11/07 06:57:48;;;;;;;6.15;1.70;;;;;;;4.23;74.10;99098.59;5071681;28;20627;-58
2021/11/07 07:00:17;;;;;;;4.20;1.52;;;;;;;4.45;74.03;99147.94;5076492;28;20115;-57
2021/11/07 07:02:43;;;;;;;4.40;1.60;;;;;;;4.43;73.94;99148.03;5071504;28;20033;-58
2021/11/07 07:05:10;;;;;;;4.85;1.23;;;;;;;4.31;73.05;99112.72;5069587;28;20354;-58
2021/11/07 07:07:38;;;;;;;4.00;1.30;;;;;;;4.23;72.25;99106.31;5071355;28;20027;-57
2021/11/07 07:10:10;;;;;;;4.20;1.58;;;;;;;4.26;72.76;99125.06;5060385;28;20043;-59
2021/11/07 07:12:51;;;;;;;4.07;1.38;;;;;;;4.24;72.79;99113.09;5055517;28;20028;-58
2021/11/07 07:15:24;;;;;;;3.50;1.30;;;;;;;4.53;71.76;99151.72;5075213;28;20029;-58
2021/11/07 07:28:39;;;;;;;14.60;6.95;;;;;;;4.75;70.52;99173.59;5070476;28;20372;-58
2021/11/07 07:34:09;;;;;;;13.23;6.75;;;;;;;4.75;69.80;99158.13;5071629;28;20452;-58
2021/11/07 07:36:35;;;;;;;4.05;1.40;;;;;;;4.93;67.01;99163.91;5066699;28;20027;-58
2021/11/07 07:39:00;;;;;;;4.85;1.25;;;;;;;5.05;68.36;99163.13;5071735;28;20483;-58
2021/11/07 07:41:26;;;;;;;3.33;1.10;;;;;;;4.90;68.22;99118.50;5070875;28;20037;-58
2021/11/07 07:43:52;;;;;;;3.90;1.40;;;;;;;4.97;69.10;99132.66;5069804;28;20487;-58
2021/11/07 07:46:19;;;;;;;3.53;1.20;;;;;;;4.77;68.86;99092.69;5074324;28;20666;-58
2021/11/07 07:48:46;;;;;;;4.03;1.30;;;;;;;4.76;70.54;99087.63;5052538;28;20028;-59
2021/11/07 07:51:15;;;;;;;5.13;1.40;;;;;;;5.12;70.54;99136.03;5069785;28;20024;-59
2021/11/07 07:53:41;;;;;;;3.53;1.30;;;;;;;5.05;69.97;99131.38;5101287;27;20585;-59
2021/11/07 07:56:07;;;;;;;4.38;1.30;;;;;;;4.97;69.66;99121.53;5072753;28;20020;-58
2021/11/07 07:58:35;;;;;;;4.15;1.50;;;;;;;4.96;71.60;99125.84;5073975;28;20422;-58
2021/11/07 08:01:00;;;;;;;4.13;1.60;;;;;;;4.69;67.75;99083.78;5070177;28;20031;-59
2021/11/07 08:03:26;;;;;;;4.93;1.60;;;;;;;4.87;68.14;99116.13;5088642;28;20040;-59
2021/11/07 08:05:53;;;;;;;4.65;1.60;;;;;;;4.88;68.41;99122.13;5073497;28;20025;-58
2021/11/07 08:08:18;;;;;;;3.40;1.33;;;;;;;4.87;66.88;99123.03;5074557;28;20060;-58
2021/11/07 08:10:44;;;;;;;4.72;1.63;;;;;;;4.79;66.76;99111.44;5071455;28;20020;-58
2021/11/07 08:13:09;;;;;;;4.40;1.40;;;;;;;4.86;67.03;99113.66;5072183;28;20028;-58
2021/11/07 08:15:34;;;;;;;4.97;1.90;;;;;;;4.80;67.63;99107.13;5064156;28;20035;-59
2021/11/07 08:18:00;;;;;;;3.78;1.50;;;;;;;4.67;69.22;99065.84;5065648;28;20028;-58
2021/11/07 08:20:26;;;;;;;4.50;2.30;;;;;;;4.69;67.62;99074.31;5073327;28;20024;-59
2021/11/07 08:22:51;;;;;;;5.90;2.92;;;;;;;4.87;66.06;99102.41;5095525;27;20035;-59
2021/11/07 08:25:21;;;;;;;4.60;2.00;;;;;;;4.93;65.26;99112.34;5072846;28;20020;-59
2021/11/07 08:27:49;;;;;;;4.30;1.65;;;;;;;4.96;65.75;99112.97;5064281;28;20097;-56
2021/11/07 08:30:17;;;;;;;4.85;1.70;;;;;;;5.00;65.61;99105.88;5067214;28;20115;-59
2021/11/07 08:32:43;;;;;;;4.28;1.70;;;;;;;5.00;65.07;99105.88;5077440;28;20053;-59
2021/11/07 08:35:09;;;;;;;4.88;1.80;;;;;;;4.93;67.11;99104.63;5075681;28;20367;-58
2021/11/07 08:37:42;;;;;;;4.28;1.30;;;;;;;4.81;66.52;99062.41;5071073;28;20070;-58
2021/11/07 08:40:10;;;;;;;3.33;1.23;;;;;;;4.75;66.28;99034.47;5074441;28;20019;-59
2021/11/07 08:42:40;;;;;;;3.80;1.40;;;;;;;5.13;67.43;99091.28;5071552;28;20055;-59
2021/11/07 09:01:45;;;;;;;3.85;1.38;;;;;;;5.29;68.46;99074.81;5062866;28;20031;-59
2021/11/07 09:09:25;;;;;;;5.22;1.90;;;;;;;5.39;68.31;99068.16;5072468;28;20067;-58
2021/11/07 09:11:53;;;;;;;4.35;1.67;;;;;;;4.97;68.38;99018.47;5100678;27;20377;-59
2021/11/07 09:14:30;;;;;;;4.45;1.70;;;;;;;5.18;69.95;99062.63;5068989;28;20032;-59
2021/11/07 09:16:56;;;;;;;4.63;1.60;;;;;;;5.29;69.55;99075.63;5076499;28;20024;-58
2021/11/07 09:19:24;;;;;;;4.32;1.55;;;;;;;5.22;70.78;99065.81;5062224;28;20035;-57
2021/11/07 09:21:56;;;;;;;4.80;1.60;;;;;;;5.25;68.93;99078.53;5058236;28;20020;-58
2021/11/07 09:24:36;;;;;;;4.68;1.50;;;;;;;5.24;69.73;99069.13;5053688;28;20105;-59
2021/11/07 09:27:08;;;;;;;3.95;1.30;;;;;;;5.23;71.57;99068.31;5058288;28;20020;-58
2021/11/07 09:29:46;;;;;;;3.70;1.38;;;;;;;5.31;70.41;99071.22;5066065;28;20112;-59
2021/11/07 09:40:09;;;;;;;3.72;1.20;;;;;;;5.12;65.51;99009.72;5069079;28;20115;-58
2021/11/07 09:48:10;;;;;;;4.25;2.13;;;;;;;5.76;61.10;99074.25;5072283;28;20047;-58
2021/11/07 09:50:36;;;;;;;5.50;2.42;;;;;;;5.92;60.97;99073.25;5058411;28;20523;-59
2021/11/07 09:53:04;;;;;;;3.53;1.25;;;;;;;6.01;60.29;99079.56;5068027;28;20025;-59
2021/11/07 09:55:30;;;;;;;3.13;1.08;;;;;;;6.34;57.88;99072.09;5071149;28;20028;-58
2021/11/07 09:57:58;;;;;;;3.85;1.20;;;;;;;6.07;58.88;99030.91;5082745;28;20025;-58
2021/11/07 10:00:34;;;;;;;5.18;1.30;;;;;;;6.35;57.89;99068.56;5064840;28;20046;-58
2021/11/07 10:03:00;;;;;;;3.83;1.52;;;;;;;6.45;57.03;99065.34;5068791;28;20119;-59
2021/11/07 10:05:26;;;;;;;2.95;1.00;;;;;;;6.24;57.85;99022.03;5066618;28;20081;-59
2021/11/07 10:08:02;;;;;;;3.08;0.90;;;;;;;6.56;58.07;99062.03;5068533;28;20686;-58
2021/11/07 10:10:32;;;;;;;3.92;1.80;;;;;;;6.27;58.29;99010.63;5084162;28;20024;-58
2021/11/07 10:13:05;;;;;;;3.65;1.50;;;;;;;6.63;58.19;99064.06;5106806;27;20802;-59
2021/11/07 10:15:44;;;;;;;3.63;1.20;;;;;;;6.74;55.91;99071.88;5077129;28;20032;-58
2021/11/07 10:18:15;;;;;;;4.20;1.58;;;;;;;6.76;53.80;99065.78;5072679;28;20024;-59
2021/11/07 10:20:48;;;;;;;3.78;1.40;;;;;;;6.81;54.05;99045.56;5077999;28;20036;-59
2021/11/07 10:23:33;;;;;;;3.53;0.98;;;;;;;6.83;53.55;99029.03;5072165;28;20084;-58
2021/11/07 10:28:39;;;;;;;5.05;1.77;;;;;;;7.09;51.04;99026.31;5073993;28;20041;-58
2021/11/07 10:45:22;;;;;;;5.63;2.58;;;;;;;7.36;48.37;98927.75;5073605;28;20036;-59
2021/11/07 10:53:19;;;;;;;2.65;0.85;;;;;;;7.92;50.08;98973.47;5072426;28;20031;-59
2021/11/07 10:56:06;;;;;;;2.40;0.90;;;;;;;7.95;51.68;98960.31;5073814;28;20036;-58
2021/11/07 10:58:41;;;;;;;3.20;0.93;;;;;;;7.96;53.14;98943.00;5078129;28;20055;-58
2021/11/07 11:01:12;;;;;;;2.90;0.88;;;;;;;7.96;53.68;98954.19;5072051;28;20115;-59
2021/11/07 11:03:47;;;;;;;3.58;1.08;;;;;;;8.01;56.61;98941.72;5077707;28;20032;-58
2021/11/07 11:06:16;;;;;;;3.80;1.23;;;;;;;8.08;56.76;98939.44;5078840;28;20033;-59
2021/11/07 11:09:17;;;;;;;3.30;1.00;;;;;;;8.01;55.68;98935.69;5078657;28;20044;-59
2021/11/07 11:11:46;;;;;;;3.20;1.00;;;;;;;8.00;54.96;98934.06;5072104;28;20109;-59
2021/11/07 11:14:21;;;;;;;3.92;1.30;;;;;;;8.01;57.72;98884.75;5065031;28;20032;-59
2021/11/07 11:30:36;;;;;;;3.22;1.02;;;;;;;8.71;57.10;98879.22;5073575;28;20083;-58
2021/11/07 11:35:40;;;;;;;2.45;0.80;;;;;;;8.49;54.57;98836.91;5069507;28;20168;-59
2021/11/07 11:43:12;;;;;;;4.32;1.20;;;;;;;8.75;53.79;98841.72;5055000;28;20044;-59
2021/11/07 11:45:41;;;;;;;2.75;0.82;;;;;;;8.80;54.50;98839.56;5069413;28;20020;-59
2021/11/07 11:51:20;;;;;;;4.65;1.40;;;;;;;8.91;54.47;98826.50;5075702;28;20044;-58
2021/11/07 12:00:09;;;;;;;3.10;0.90;;;;;;;9.25;51.83;98826.22;5069631;28;20119;-59
2021/11/07 12:02:49;;;;;;;3.10;0.95;;;;;;;9.21;50.71;98815.28;5069452;28;20028;-58
2021/11/07 12:05:30;;;;;;;;;;;;;;;9.46;49.53;98815.00;5064511;28;20327;-57
2021/11/07 12:08:17;;;;;;;3.97;1.27;;;;;;;9.56;51.35;98775.09;5070244;28;19916;-59
2021/11/07 12:11:01;;;;;;;4.22;1.42;;;;;;;9.53;53.59;98774.56;5074652;28;20463;-59
2021/11/07 12:13:44;;;;;;;3.28;1.08;;;;;;;10.03;54.50;98805.63;5073289;28;20633;-58
2021/11/07 12:16:17;;;;;;;4.15;1.10;;;;;;;9.87;55.26;98787.97;5073183;28;20028;-58
2021/11/07 12:19:03;;;;;;;3.25;0.90;;;;;;;9.75;55.54;98792.50;5065809;28;20112;-59
2021/11/07 12:21:46;;;;;;;2.90;1.00;;;;;;;9.87;55.26;98787.16;5075054;28;20024;-59
2021/11/07 12:24:12;;;;;;;3.63;0.95;;;;;;;9.88;55.41;98784.44;5072109;28;20097;-58
2021/11/07 12:26:37;;;;;;;4.13;1.00;;;;;;;9.89;54.92;98775.69;5071583;28;20676;-58
2021/11/07 12:29:03;;;;;;;2.88;0.98;;;;;;;9.94;55.53;98778.69;5068285;28;20031;-59
2021/11/07 12:31:30;;;;;;;3.70;1.00;;;;;;;10.05;53.37;98777.72;5074288;28;20034;-58
2021/11/07 12:34:04;;;;;;;3.03;0.93;;;;;;;10.09;54.07;98780.88;5076494;28;20417;-58
2021/11/07 12:40:27;;;;;;;3.05;1.00;;;;;;;10.14;48.64;98776.91;5061112;28;20028;-58
2021/11/07 12:42:19;;;;;;;3.40;0.95;;;;;;;10.26;48.96;98764.59;5074039;28;20056;-59
2021/11/07 12:44:48;;;;;;;3.13;0.88;;;;;;;10.27;49.62;98776.63;5068393;28;20036;-58
2021/11/07 12:47:15;;;;;;;2.17;0.70;;;;;;;10.19;50.06;98776.50;5067985;28;20103;-59
2021/11/07 12:49:40;;;;;;;2.78;0.90;;;;;;;10.24;50.23;98776.06;5053911;28;20020;-59
2021/11/07 12:52:05;;;;;;;2.33;0.85;;;;;;;10.28;47.71;98767.06;5069815;28;20028;-58
2021/11/07 12:54:41;;;;;;;4.07;1.08;;;;;;;10.34;47.68;98756.13;5070870;28;20028;-59
2021/11/07 12:57:13;;;;;;;4.18;0.90;;;;;;;10.21;47.43;98714.81;5065666;28;20029;-58
2021/11/07 12:59:49;;;;;;;3.35;1.08;;;;;;;10.42;47.26;98737.22;5068801;28;20024;-58
2021/11/07 13:02:28;;;;;;;3.20;0.90;;;;;;;10.39;46.42;98733.97;5075795;28;20025;-59
2021/11/07 13:05:16;;;;;;;2.75;0.90;;;;;;;10.48;46.17;98732.31;5060753;28;20375;-59
2021/11/07 13:07:47;;;;;;;3.90;1.30;;;;;;;10.49;45.04;98718.31;5071222;28;20064;-58
2021/11/07 13:10:24;;;;;;;3.05;0.95;;;;;;;10.62;47.56;98723.22;5058809;28;20681;-59
2021/11/07 13:12:52;;;;;;;3.05;0.90;;;;;;;10.65;47.40;98701.31;5066879;28;20036;-58
2021/11/07 13:27:13;;;;;;;2.97;1.00;;;;;;;10.56;48.13;98666.59;5054195;28;20036;-58
2021/11/07 13:29:52;;;;;;;3.60;1.00;;;;;;;10.82;50.33;98679.75;5075059;28;20023;-58
2021/11/07 13:35:08;;;;;;;2.75;1.00;;;;;;;10.74;49.31;98674.47;5067254;28;20056;-58
2021/11/07 13:37:42;;;;;;;5.05;1.10;;;;;;;10.63;51.65;98664.25;5072559;28;20063;-58
2021/11/07 13:40:13;;;;;;;4.40;1.02;;;;;;;10.64;52.36;98666.72;5075756;28;20513;-59
2021/11/07 13:42:41;;;;;;;3.38;0.80;;;;;;;10.56;53.24;98657.00;5069050;28;20441;-58
2021/11/07 13:45:28;;;;;;;2.13;0.80;;;;;;;10.60;49.21;98646.31;5074087;28;20116;-59
2021/11/07 13:47:54;;;;;;;3.80;1.00;;;;;;;10.32;45.54;98584.75;5073237;28;20034;-59
2021/11/07 13:50:22;;;;;;;2.90;0.82;;;;;;;10.58;47.26;98613.47;5074833;28;20032;-58
2021/11/07 13:52:52;;;;;;;3.08;1.00;;;;;;;10.52;44.91;98601.06;5050478;28;20029;-59
2021/11/07 13:55:20;;;;;;;3.08;0.90;;;;;;;10.55;44.62;98610.34;5065221;28;20371;-58
2021/11/07 13:57:46;;;;;;;3.50;1.30;;;;;;;10.59;43.47;98614.31;5076730;28;20103;-59
2021/11/07 14:00:19;;;;;;;3.33;1.10;;;;;;;10.58;44.23;98620.47;5050306;28;20028;-59
2021/11/07 14:02:48;;;;;;;4.65;1.20;;;;;;;10.73;44.16;98610.38;5072334;28;20036;-58
2021/11/07 14:05:14;;;;;;;3.40;1.10;;;;;;;10.94;44.82;98613.56;5070878;28;20154;-58
2021/11/07 14:07:40;;;;;;;3.63;0.90;;;;;;;10.92;46.97;98599.06;5068538;28;20039;-58
2021/11/07 14:10:15;;;;;;;2.38;0.80;;;;;;;10.70;51.27;98574.28;5073338;28;20565;-58
2021/11/07 14:12:46;;;;;;;2.72;0.80;;;;;;;10.72;54.51;98604.38;5074052;28;20081;-58
2021/11/07 14:15:24;;;;;;;3.10;0.75;;;;;;;10.60;59.19;98609.94;5068840;28;20060;-59
2021/11/07 14:17:52;;;;;;;3.55;0.80;;;;;;;10.48;60.13;98604.91;5073059;28;20043;-59
2021/11/07 14:20:43;;;;;;;2.38;0.80;;;;;;;10.46;57.35;98601.66;5073255;28;20475;-59